createdAt,value
2023-05-09T00:00:38.383Z,0
2023-05-09T00:03:38.517Z,0.16
2023-05-09T00:06:38.460Z,0.25
2023-05-09T00:09:38.433Z,0.04
2023-05-09T00:12:38.424Z,0.26
2023-05-09T00:15:38.387Z,0.16
2023-05-09T00:18:38.400Z,0.22
2023-05-09T00:21:38.435Z,0.29
2023-05-09T00:24:38.397Z,0.11
2023-05-09T00:27:38.423Z,0.13
2023-05-09T00:30:38.492Z,0.2
2023-05-09T00:33:38.447Z,0.29
2023-05-09T00:36:38.474Z,0.35
2023-05-09T00:39:38.502Z,0.72
2023-05-09T00:42:38.478Z,0.32
2023-05-09T00:45:38.429Z,0.28
2023-05-09T00:48:38.397Z,0.51
2023-05-09T00:51:38.477Z,0.44
2023-05-09T00:54:38.474Z,0.67
2023-05-09T00:57:38.492Z,0.66
2023-05-09T01:00:38.494Z,0.57
2023-05-09T01:03:38.563Z,0.43
2023-05-09T01:06:38.581Z,0.43
2023-05-09T01:09:38.413Z,0.47
2023-05-09T01:12:38.452Z,0.46
2023-05-09T01:15:38.566Z,0.26
2023-05-09T01:18:38.618Z,0.24
2023-05-09T01:21:38.412Z,0.69
2023-05-09T01:24:38.511Z,0.57
2023-05-09T01:27:38.445Z,0.49
2023-05-09T01:30:38.531Z,0.65
2023-05-09T01:33:38.576Z,0.35
2023-05-09T01:36:38.568Z,0.46
2023-05-09T01:39:38.457Z,0.28
2023-05-09T01:42:38.544Z,0.29
2023-05-09T01:45:38.514Z,0.13
2023-05-09T01:48:38.638Z,0.29
2023-05-09T01:51:38.583Z,0.43
2023-05-09T01:54:38.447Z,0.5
2023-05-09T01:57:38.520Z,0.43
2023-05-09T02:00:38.602Z,0.58
2023-05-09T02:03:38.518Z,0.21
2023-05-09T02:06:38.585Z,0.32
2023-05-09T02:09:38.476Z,0.68
2023-05-09T02:12:38.580Z,0.32
2023-05-09T02:15:38.505Z,0.52
2023-05-09T02:18:38.471Z,0.26
2023-05-09T02:21:38.525Z,0.41
2023-05-09T02:24:38.585Z,0.59
2023-05-09T02:27:38.583Z,0.61
2023-05-09T02:30:38.593Z,0.6
2023-05-09T02:33:38.510Z,0.74
2023-05-09T02:36:38.572Z,0.88
2023-05-09T02:39:38.488Z,0.46
2023-05-09T02:42:38.532Z,0.51
2023-05-09T02:45:38.587Z,0.64
2023-05-09T02:48:38.548Z,0.28
2023-05-09T02:51:38.508Z,0.32
2023-05-09T02:54:38.610Z,0.27
2023-05-09T02:57:38.583Z,0.25
2023-05-09T03:00:38.559Z,0.21
2023-05-09T03:03:38.631Z,0.4
2023-05-09T03:06:38.587Z,0.46
2023-05-09T03:09:40.508Z,0.53
2023-05-09T03:12:38.518Z,0.22
2023-05-09T03:15:38.639Z,0.4
2023-05-09T03:18:38.546Z,0.29
2023-05-09T03:21:38.617Z,0.29
2023-05-09T03:24:38.579Z,0.44
2023-05-09T03:27:38.624Z,0.62
2023-05-09T03:30:38.617Z,0.36
2023-05-09T03:33:38.603Z,0.25
2023-05-09T03:36:38.614Z,0.3
2023-05-09T03:39:38.633Z,0.21
2023-05-09T03:42:38.564Z,0.42
2023-05-09T03:45:38.579Z,0.32
2023-05-09T03:48:38.618Z,0.33
2023-05-09T03:51:39.946Z,0.42
2023-05-09T03:54:38.556Z,0.36
2023-05-09T03:57:38.699Z,0.48
2023-05-09T04:00:38.634Z,0.29
2023-05-09T04:03:38.664Z,0.4
2023-05-09T04:06:38.621Z,0.24
2023-05-09T04:09:38.713Z,0.39
2023-05-09T04:12:38.646Z,0.28
2023-05-09T04:15:38.656Z,0.34
2023-05-09T04:18:38.742Z,0.54
2023-05-09T04:21:38.622Z,0.42
2023-05-09T04:24:38.570Z,0.36
2023-05-09T04:27:38.665Z,0.36
2023-05-09T04:30:38.718Z,0.31
2023-05-09T04:33:38.655Z,0.58
2023-05-09T04:36:38.702Z,0.44
2023-05-09T04:39:38.634Z,0.5
2023-05-09T04:42:38.667Z,0.28
2023-05-09T04:45:38.686Z,0.34
2023-05-09T04:48:38.704Z,0.53
2023-05-09T04:51:38.623Z,0.51
2023-05-09T04:54:38.743Z,0.66
2023-05-09T04:57:38.601Z,0.57
2023-05-09T05:00:38.709Z,0.79
2023-05-09T05:03:38.709Z,0.79
2023-05-09T05:06:38.616Z,0.83
2023-05-09T05:09:38.622Z,0.54
2023-05-09T05:12:38.688Z,0.51
2023-05-09T05:15:38.718Z,0.81
2023-05-09T05:18:38.720Z,1.07
2023-05-09T05:21:38.715Z,0.81
2023-05-09T05:24:38.625Z,1.44
2023-05-09T05:27:38.671Z,0.73
2023-05-09T05:30:38.671Z,0.57
2023-05-09T05:33:38.667Z,0.66
2023-05-09T05:36:38.734Z,0.89
2023-05-09T05:39:38.693Z,0.98
2023-05-09T05:42:38.669Z,0.66
2023-05-09T05:45:38.718Z,1.33
2023-05-09T05:48:38.659Z,0.43
2023-05-09T05:51:39.572Z,0.73
2023-05-09T05:54:38.749Z,0.96
2023-05-09T05:57:38.782Z,0.73
2023-05-09T06:00:38.784Z,0.5
2023-05-09T06:03:38.798Z,0.81
2023-05-09T06:06:38.765Z,0.6
2023-05-09T06:09:38.660Z,0.81
2023-05-09T06:12:38.816Z,0.73
2023-05-09T06:15:38.740Z,0.36
2023-05-09T06:18:38.736Z,0.67
2023-05-09T06:21:38.774Z,0.72
2023-05-09T06:24:38.790Z,0.62
2023-05-09T06:27:38.745Z,0.93
2023-05-09T06:30:38.787Z,0.76
2023-05-09T06:33:38.758Z,0.85
2023-05-09T06:36:38.736Z,0.7
2023-05-09T06:39:39.711Z,0.93
2023-05-09T06:42:38.821Z,0.78
2023-05-09T06:45:38.852Z,0.33
2023-05-09T06:48:38.810Z,0.65
2023-05-09T06:51:38.764Z,0.57
2023-05-09T06:54:38.719Z,0.61
2023-05-09T06:57:38.738Z,0.69
2023-05-09T07:00:38.783Z,0.79
2023-05-09T07:03:38.805Z,0.45
2023-05-09T07:06:38.832Z,1.37
2023-05-09T07:09:38.758Z,1.16
2023-05-09T07:12:38.826Z,1.53
2023-05-09T07:15:42.398Z,0.9
2023-05-09T07:18:38.855Z,0.87
2023-05-09T07:21:38.793Z,0.86
2023-05-09T07:24:38.851Z,0.71
2023-05-09T07:27:38.829Z,0.77
2023-05-09T07:30:38.986Z,0.76
2023-05-09T07:33:38.779Z,0.45
2023-05-09T07:39:38.745Z,0.72
2023-05-09T07:42:38.879Z,0.9
2023-05-09T07:45:38.921Z,1.2
2023-05-09T07:48:38.815Z,1.04
2023-05-09T07:51:38.830Z,0.99
2023-05-09T07:54:38.846Z,1.11
2023-05-09T07:57:38.893Z,0.99
2023-05-09T08:00:38.829Z,0.98
2023-05-09T08:03:38.893Z,0.89
2023-05-09T08:06:38.799Z,1.04
2023-05-09T08:09:38.831Z,0.97
2023-05-09T08:12:38.826Z,0.9
2023-05-09T08:15:38.904Z,1.2
2023-05-09T08:18:38.878Z,1
2023-05-09T08:21:38.812Z,1
2023-05-09T08:24:38.842Z,0.86
2023-05-09T08:27:38.883Z,1.08
2023-05-09T08:30:38.927Z,1.32
2023-05-09T08:33:40.552Z,1.33
2023-05-09T08:36:38.915Z,1.47
2023-05-09T08:39:38.934Z,1.12
2023-05-09T08:42:38.921Z,1.4
2023-05-09T08:45:38.870Z,1.3
2023-05-09T08:48:38.895Z,0.98
2023-05-09T08:51:38.852Z,1.01
2023-05-09T08:54:38.952Z,1.56
2023-05-09T08:57:38.925Z,1.38
2023-05-09T09:00:38.914Z,1.25
2023-05-09T09:03:38.960Z,1.93
2023-05-09T09:06:38.904Z,1.64
2023-05-09T09:09:38.894Z,1.48
2023-05-09T09:12:38.945Z,1.61
2023-05-09T09:15:38.913Z,1.24
2023-05-09T09:18:39.839Z,1.12
2023-05-09T09:21:38.869Z,1.16
2023-05-09T09:24:38.947Z,0.82
2023-05-09T09:27:38.953Z,1.19
2023-05-09T09:30:39.029Z,1.06
2023-05-09T09:33:38.884Z,1.08
2023-05-09T09:36:38.928Z,1.27
2023-05-09T09:39:38.877Z,1.03
2023-05-09T09:42:38.967Z,0.94
2023-05-09T09:45:39.230Z,1.29
2023-05-09T09:48:38.900Z,1.43
2023-05-09T09:51:38.953Z,1.08
2023-05-09T09:54:38.997Z,1.01
2023-05-09T09:57:40.226Z,1.58
2023-05-09T10:00:38.930Z,0.94
2023-05-09T10:03:38.969Z,1.15
2023-05-09T10:06:39.021Z,1.44
2023-05-09T10:09:38.937Z,1.29
2023-05-09T10:12:38.920Z,1.54
2023-05-09T10:15:49.773Z,1.44
2023-05-09T10:18:39.074Z,1.71
2023-05-09T10:21:39.006Z,1.42
2023-05-09T10:24:39.009Z,1.1
2023-05-09T10:27:39.031Z,0.62
2023-05-09T10:30:39.073Z,0.73
2023-05-09T10:33:39.045Z,0.97
2023-05-09T10:36:39.077Z,1.3
2023-05-09T10:39:39.072Z,1.29
2023-05-09T10:42:38.952Z,0.86
2023-05-09T10:45:38.966Z,1.27
2023-05-09T10:48:39.000Z,1.16
2023-05-09T10:51:38.935Z,1.11
2023-05-09T10:54:38.981Z,0.99
2023-05-09T10:57:38.942Z,0.6
2023-05-09T11:00:39.033Z,0.85
2023-05-09T11:03:39.070Z,1.21
2023-05-09T11:06:38.998Z,1.04
2023-05-09T11:09:39.202Z,1.62
2023-05-09T11:12:38.985Z,1.35
2023-05-09T11:15:39.050Z,1.03
2023-05-09T11:18:38.991Z,0.64
2023-05-09T11:21:38.970Z,0.89
2023-05-09T11:24:39.077Z,1.12
2023-05-09T11:27:38.989Z,1.16
2023-05-09T11:30:39.001Z,0.74
2023-05-09T11:33:39.076Z,0.89
2023-05-09T11:36:39.162Z,0.94
2023-05-09T11:39:39.066Z,0.87
2023-05-09T11:42:39.138Z,0.73
2023-05-09T11:45:39.112Z,0.82
2023-05-09T11:48:39.111Z,0.87
2023-05-09T11:51:39.051Z,1.37
2023-05-09T11:54:39.105Z,1.24
2023-05-09T11:57:39.111Z,1.04
2023-05-09T12:00:39.080Z,0.9
2023-05-09T12:03:39.053Z,1.21
2023-05-09T12:06:39.219Z,1.43
2023-05-09T12:09:39.126Z,1.21
2023-05-09T12:12:39.068Z,0.99
2023-05-09T12:15:39.071Z,1.22
2023-05-09T12:18:41.448Z,1.12
2023-05-09T12:21:39.144Z,0.71
2023-05-09T12:24:39.222Z,0.73
2023-05-09T12:27:39.038Z,0.66
2023-05-09T12:30:39.057Z,0.78
2023-05-09T12:33:39.118Z,1.38
2023-05-09T12:36:39.050Z,1.2
2023-05-09T12:39:39.062Z,1.37
2023-05-09T12:42:39.133Z,1.61
2023-05-09T12:45:39.148Z,1.24
2023-05-09T12:48:39.160Z,1.41
2023-05-09T12:51:39.127Z,0.69
2023-05-09T12:54:39.154Z,1.28
2023-05-09T12:57:39.095Z,0.76
2023-05-09T13:00:39.521Z,1.01
2023-05-09T13:03:39.159Z,0.87
2023-05-09T13:06:39.201Z,0.66
2023-05-09T13:09:39.132Z,1.4
2023-05-09T13:12:39.193Z,1.17
2023-05-09T13:15:39.092Z,1.73
2023-05-09T13:18:39.185Z,1.26
2023-05-09T13:21:39.226Z,1.04
2023-05-09T13:24:39.080Z,1.24
2023-05-09T13:27:39.086Z,0.52
2023-05-09T13:30:39.238Z,1.09
2023-05-09T13:33:39.155Z,1.41
2023-05-09T13:36:39.090Z,1.26
2023-05-09T13:39:39.162Z,1.01
2023-05-09T13:42:39.203Z,0.93
2023-05-09T13:45:39.125Z,0.54
2023-05-09T13:48:39.292Z,0.92
2023-05-09T13:51:39.153Z,1.17
2023-05-09T13:54:39.174Z,1.64
2023-05-09T13:57:39.135Z,1.06
2023-05-09T14:00:39.209Z,0.86
2023-05-09T14:03:39.295Z,1.05
2023-05-09T14:06:39.135Z,1.17
2023-05-09T14:09:39.145Z,1.08
2023-05-09T14:12:39.275Z,1.3
2023-05-09T14:15:39.220Z,0.79
2023-05-09T14:18:39.450Z,0.98
2023-05-09T14:21:39.264Z,1.52
2023-05-09T14:24:39.217Z,1.07
2023-05-09T14:27:40.098Z,1.01
2023-05-09T14:30:39.173Z,1.46
2023-05-09T14:33:39.282Z,1.37
2023-05-09T14:36:39.177Z,0.76
2023-05-09T14:39:39.198Z,1.66
2023-05-09T14:42:39.259Z,0.94
2023-05-09T14:45:39.230Z,1.49
2023-05-09T14:48:39.281Z,1.16
2023-05-09T14:51:39.174Z,1.46
2023-05-09T14:54:39.247Z,1.2
2023-05-09T14:57:39.154Z,1.05
2023-05-09T15:00:39.254Z,1.12
2023-05-09T15:03:39.386Z,1.04
2023-05-09T15:06:39.261Z,1.03
2023-05-09T15:09:39.274Z,1.39
2023-05-09T15:12:39.213Z,1.54
2023-05-09T15:15:39.223Z,1.08
2023-05-09T15:18:39.288Z,1.43
2023-05-09T15:21:39.402Z,1.39
2023-05-09T15:24:39.304Z,0.88
2023-05-09T15:27:39.198Z,1.07
2023-05-09T15:30:39.333Z,0.86
2023-05-09T15:33:39.330Z,1.23
2023-05-09T15:36:39.252Z,1.26
2023-05-09T15:39:39.249Z,1.41
2023-05-09T15:42:39.246Z,1.39
2023-05-09T15:45:39.241Z,1.4
2023-05-09T15:48:39.311Z,1.38
2023-05-09T15:51:39.311Z,1.27
2023-05-09T15:54:39.374Z,0.91
2023-05-09T15:57:39.300Z,1.16
2023-05-09T16:00:39.221Z,1.09
2023-05-09T16:03:39.358Z,1.04
2023-05-09T16:06:39.307Z,0.96
2023-05-09T16:09:39.387Z,1.05
2023-05-09T16:12:39.287Z,1.1
2023-05-09T16:15:39.368Z,1.41
2023-05-09T16:18:39.300Z,1.43
2023-05-09T16:21:39.389Z,1.39
2023-05-09T16:24:39.298Z,1.01
2023-05-09T16:27:39.286Z,1.13
2023-05-09T16:30:39.281Z,0.8
2023-05-09T16:33:39.333Z,1.33
2023-05-09T16:36:39.403Z,1.2
2023-05-09T16:39:39.289Z,1.33
2023-05-09T16:42:40.450Z,1.18
2023-05-09T16:45:39.353Z,0.91
2023-05-09T16:48:39.370Z,0.98
2023-05-09T16:51:39.389Z,0.81
2023-05-09T16:54:39.395Z,0.82
2023-05-09T16:57:39.311Z,0.66
2023-05-09T17:00:39.351Z,0.88
2023-05-09T17:03:39.398Z,0.85
2023-05-09T17:06:39.273Z,0.82
2023-05-09T17:09:39.341Z,0.74
2023-05-09T17:12:39.366Z,0.84
2023-05-09T17:15:39.450Z,0.84
2023-05-09T17:18:39.373Z,0.91
2023-05-09T17:21:39.604Z,0.95
2023-05-09T17:24:39.488Z,0.9
2023-05-09T17:27:39.362Z,0.8
2023-05-09T17:30:39.421Z,0.6
2023-05-09T17:33:39.340Z,0.57
2023-05-09T17:36:39.384Z,0.58
2023-05-09T17:39:39.480Z,0.56
2023-05-09T17:42:39.360Z,0.7
2023-05-09T17:45:39.456Z,0.66
2023-05-09T17:48:39.418Z,0.6
2023-05-09T17:51:39.574Z,0.57
2023-05-09T17:54:39.437Z,0.47
2023-05-09T17:57:39.523Z,0.41
2023-05-09T18:00:39.372Z,0.62
2023-05-09T18:03:39.575Z,0.87
2023-05-09T18:06:39.385Z,0.77
2023-05-09T18:09:39.531Z,0.82
2023-05-09T18:12:39.413Z,0.59
2023-05-09T18:15:39.453Z,0.96
2023-05-09T18:18:39.375Z,0.85
2023-05-09T18:21:39.404Z,1.04
2023-05-09T18:24:39.435Z,0.68
2023-05-09T18:27:39.440Z,0.79
2023-05-09T18:30:39.447Z,0.89
2023-05-09T18:33:39.513Z,0.73
2023-05-09T18:36:39.466Z,0.61
2023-05-09T18:39:39.501Z,0.9
2023-05-09T18:42:39.406Z,1.06
2023-05-09T18:45:39.494Z,1.15
2023-05-09T18:48:39.542Z,0.8
2023-05-09T18:51:39.476Z,1.22
2023-05-09T18:54:39.504Z,0.82
2023-05-09T18:57:39.434Z,0.92
2023-05-09T19:00:39.510Z,1.51
2023-05-09T19:03:39.442Z,1.84
2023-05-09T19:06:39.507Z,1.66
2023-05-09T19:09:39.433Z,2.25
2023-05-09T19:12:39.521Z,0.82
2023-05-09T19:15:39.491Z,1.03
2023-05-09T19:18:39.474Z,1.37
2023-05-09T19:21:39.449Z,1.43
2023-05-09T19:24:39.526Z,1.36
2023-05-09T19:27:39.455Z,1.06
2023-05-09T19:30:39.486Z,1.09
2023-05-09T19:33:39.466Z,1.28
2023-05-09T19:36:39.543Z,0.98
2023-05-09T19:39:39.583Z,0.98
2023-05-09T19:42:39.469Z,1.01
2023-05-09T19:45:39.523Z,0.99
2023-05-09T19:48:39.438Z,1.44
2023-05-09T19:51:39.613Z,0.8
2023-05-09T19:54:39.468Z,0.88
2023-05-09T19:57:39.481Z,0.94
2023-05-09T20:00:39.570Z,0.89
2023-05-09T20:03:39.537Z,0.89
2023-05-09T20:06:39.549Z,0.55
2023-05-09T20:09:39.487Z,0.66
2023-05-09T20:12:39.536Z,1.04
2023-05-09T20:15:39.596Z,0.89
2023-05-09T20:18:39.502Z,0.68
2023-05-09T20:21:39.705Z,0.93
2023-05-09T20:24:39.460Z,0.6
2023-05-09T20:27:39.569Z,0.34
2023-05-09T20:30:39.518Z,0.72
2023-05-09T20:33:39.594Z,0.19
2023-05-09T20:36:39.511Z,0.36
2023-05-09T20:39:39.512Z,0.39
2023-05-09T20:42:39.568Z,0.32
2023-05-09T20:45:39.538Z,0.56
2023-05-09T20:48:39.559Z,0.32
2023-05-09T20:51:39.562Z,0.09
2023-05-09T20:54:39.596Z,0.06
2023-05-09T20:57:39.602Z,0.22
2023-05-09T21:00:39.637Z,0.02
2023-05-09T21:03:39.621Z,0.17
2023-05-09T21:06:39.595Z,0.07
2023-05-09T21:09:39.587Z,0.03
2023-05-09T21:12:39.550Z,0
2023-05-09T21:15:39.521Z,0
2023-05-09T21:18:39.558Z,0.13
2023-05-09T21:21:39.626Z,0.48
2023-05-09T21:24:39.626Z,0.1
2023-05-09T21:27:39.596Z,0.15
2023-05-09T21:30:39.560Z,0.08
2023-05-09T21:33:39.544Z,0.22
2023-05-09T21:36:39.666Z,0.15
2023-05-09T21:39:39.590Z,0.14
2023-05-09T21:42:39.568Z,0.22
2023-05-09T21:45:39.580Z,0.26
2023-05-09T21:48:39.597Z,0.1
2023-05-09T21:51:39.653Z,0.21
2023-05-09T21:54:39.574Z,0.11
2023-05-09T21:57:39.658Z,0.09
2023-05-09T22:00:39.645Z,0.11
2023-05-09T22:03:39.669Z,0.04
2023-05-09T22:06:39.689Z,0.25
2023-05-09T22:09:39.663Z,0.19
2023-05-09T22:12:39.742Z,0.17
2023-05-09T22:15:39.699Z,0.31
2023-05-09T22:18:39.668Z,0.27
2023-05-09T22:21:39.691Z,0.1
2023-05-09T22:24:39.689Z,0.11
2023-05-09T22:27:39.636Z,0.08
2023-05-09T22:30:39.621Z,0.29
2023-05-09T22:33:39.621Z,0.28
2023-05-09T22:36:39.616Z,0.22
2023-05-09T22:39:39.617Z,0.23
2023-05-09T22:42:39.679Z,0.37
2023-05-09T22:45:39.726Z,0.32
2023-05-09T22:48:39.625Z,0.3
2023-05-09T22:51:39.683Z,0.5
2023-05-09T22:54:39.701Z,0.62
2023-05-09T22:57:39.629Z,0.53
2023-05-09T23:00:39.669Z,0.24
2023-05-09T23:03:39.796Z,0.21
2023-05-09T23:06:39.609Z,0.19
2023-05-09T23:09:39.888Z,0.03
2023-05-09T23:12:39.653Z,0.11
2023-05-09T23:15:39.747Z,0.21
2023-05-09T23:18:39.720Z,0.29
2023-05-09T23:21:39.697Z,0.04
2023-05-09T23:24:39.716Z,0.11
2023-05-09T23:27:39.713Z,0.19
2023-05-09T23:30:39.742Z,0.08
2023-05-09T23:33:39.729Z,0.02
2023-05-09T23:36:39.629Z,0.08
2023-05-09T23:39:39.668Z,0
2023-05-09T23:42:39.706Z,0
2023-05-09T23:45:39.686Z,0.02
2023-05-09T23:48:39.654Z,0.12
2023-05-09T23:51:39.772Z,0.11
2023-05-09T23:54:39.774Z,0.27
2023-05-09T23:57:39.760Z,0.15
